Time;durP1;ratioP1;P1;durP2;ratioP2;P2;SDS_P1;SDS_P2;PMS_P1;PMS_P2;Temp;Humidity;BMP_temperature;BMP_pressure;BME280_temperature;BME280_humidity;BME280_pressure;Samples;Min_cycle;Max_cycle;Signal;HPM_P1;HPM_P2
2024/02/27 13:14:28;;;;;;;26.92;15.55;;;;;;;19.21;82.34;97475.97;5128751;27;20652;-77
2024/02/27 13:16:53;;;;;;;26.08;14.98;;;;;;;18.98;87.07;97470.06;5127818;28;20039;-76
2024/02/27 13:19:19;;;;;;;23.73;13.88;;;;;;;18.74;88.18;97472.44;5128401;27;20049;-77
2024/02/27 13:21:45;;;;;;;25.90;13.95;;;;;;;18.54;90.12;97481.63;5127245;28;20023;-75
2024/02/27 13:24:11;;;;;;;25.23;14.43;;;;;;;18.92;89.44;97495.06;5128352;27;20027;-75
2024/02/27 13:26:36;;;;;;;24.08;13.90;;;;;;;18.73;90.92;97487.00;5127024;28;20114;-76
2024/02/27 13:29:03;;;;;;;26.48;14.15;;;;;;;18.84;89.34;97484.97;5109967;28;20035;-76
2024/02/27 13:31:28;;;;;;;22.23;12.98;;;;;;;19.68;84.10;97482.16;5128365;27;20031;-76
2024/02/27 13:33:54;;;;;;;28.30;15.23;;;;;;;20.82;72.20;97476.72;5128580;27;20031;-77
2024/02/27 13:36:19;;;;;;;24.63;14.45;;;;;;;20.59;73.79;97470.97;5127030;28;20035;-77
2024/02/27 13:38:45;;;;;;;30.25;14.75;;;;;;;21.91;64.49;97471.28;5129074;27;20448;-76
2024/02/27 13:41:11;;;;;;;23.52;14.75;;;;;;;21.39;64.50;97467.00;5128839;28;20110;-76
2024/02/27 13:43:36;;;;;;;24.65;14.50;;;;;;;20.30;70.98;97475.84;5128422;27;20020;-76
2024/02/27 13:46:02;;;;;;;31.05;14.93;;;;;;;19.90;79.17;97471.69;5128764;27;20032;-76
2024/02/27 13:48:28;;;;;;;28.73;15.40;;;;;;;18.75;89.04;97480.44;5128002;27;20047;-76
2024/02/27 13:50:53;;;;;;;26.70;14.85;;;;;;;19.26;86.77;97474.50;5130760;27;20115;-77
2024/02/27 13:53:19;;;;;;;27.60;13.93;;;;;;;18.60;89.42;97484.59;5127603;28;20093;-77
2024/02/27 13:55:45;;;;;;;29.67;15.13;;;;;;;17.74;99.92;97490.91;5129006;27;20130;-77
2024/02/27 13:58:10;;;;;;;27.45;15.00;;;;;;;17.68;100.00;97499.56;5127125;27;20548;-80
2024/02/27 14:00:36;;;;;;;25.17;14.07;;;;;;;17.35;100.00;97498.03;5128720;27;20413;-79
2024/02/27 14:03:03;;;;;;;30.75;14.85;;;;;;;17.19;100.00;97496.84;5110361;28;20028;-79
2024/02/27 14:05:28;;;;;;;27.35;15.15;;;;;;;17.12;100.00;97492.97;5111245;28;20557;-76
2024/02/27 14:07:54;;;;;;;32.72;16.08;;;;;;;17.08;100.00;97499.63;5127122;28;20182;-76
2024/02/27 14:10:19;;;;;;;34.13;16.10;;;;;;;17.14;100.00;97509.91;5128117;28;20086;-80
2024/02/27 14:12:45;;;;;;;31.40;15.38;;;;;;;17.23;100.00;97503.66;5127598;28;20049;-77
2024/02/27 14:15:11;;;;;;;33.70;18.20;;;;;;;17.28;100.00;97501.44;5117362;27;20043;-77
2024/02/27 14:17:37;;;;;;;31.15;17.77;;;;;;;17.50;100.00;97501.22;5096004;28;20050;-76
2024/02/27 14:20:04;;;;;;;30.65;15.48;;;;;;;17.11;100.00;97496.66;5112841;28;20090;-76
2024/02/27 14:22:29;;;;;;;34.50;15.70;;;;;;;17.21;100.00;97501.13;5112170;28;20036;-76
2024/02/27 14:24:55;;;;;;;28.10;16.27;;;;;;;17.36;100.00;97501.59;5114563;28;20060;-75
2024/02/27 14:27:21;;;;;;;29.77;16.80;;;;;;;17.44;100.00;97512.59;5095472;28;20031;-77
2024/02/27 14:29:46;;;;;;;31.55;15.45;;;;;;;16.94;100.00;97510.81;5112410;28;20042;-76
2024/02/27 14:32:12;;;;;;;36.50;15.65;;;;;;;17.09;100.00;97509.47;5112344;28;20490;-75
2024/02/27 14:34:38;;;;;;;29.85;15.45;;;;;;;17.14;100.00;97515.31;5113520;28;20027;-75
2024/02/27 14:37:03;;;;;;;37.40;17.15;;;;;;;16.54;100.00;97516.13;5112507;28;20392;-74
2024/02/27 14:39:29;;;;;;;32.72;15.70;;;;;;;16.35;100.00;97518.69;5115061;28;20111;-77
2024/02/27 14:41:55;;;;;;;33.78;15.48;;;;;;;16.36;100.00;97512.31;5117733;28;20050;-77
2024/02/27 14:44:21;;;;;;;28.52;14.52;;;;;;;16.36;100.00;97520.41;5116832;28;20470;-77
2024/02/27 14:46:52;;;;;;;35.30;15.80;;;;;;;16.43;100.00;97518.88;5113836;28;20028;-75
2024/02/27 14:49:18;;;;;;;35.47;15.93;;;;;;;16.57;100.00;97527.53;5114017;28;20031;-76
2024/02/27 14:51:52;;;;;;;29.88;17.05;;;;;;;16.27;100.00;97524.75;5113665;28;20402;-76
2024/02/27 14:54:18;;;;;;;31.95;16.42;;;;;;;16.36;100.00;97529.38;5112383;28;20101;-76
2024/02/27 14:56:43;;;;;;;33.00;17.17;;;;;;;16.19;100.00;97533.50;5113312;28;20043;-76
2024/02/27 14:59:09;;;;;;;36.88;18.23;;;;;;;16.06;100.00;97527.41;5112592;28;20030;-76
2024/02/27 15:01:35;;;;;;;36.28;16.83;;;;;;;16.04;100.00;97528.53;5111826;28;20104;-76
2024/02/27 15:04:00;;;;;;;41.42;22.50;;;;;;;15.85;100.00;97540.00;5112141;28;20027;-77
2024/02/27 15:06:32;;;;;;;42.03;20.23;;;;;;;15.62;100.00;97536.53;5113309;28;20027;-78
2024/02/27 15:08:58;;;;;;;33.22;16.85;;;;;;;15.54;100.00;97535.41;5105325;28;20452;-76
2024/02/27 15:11:23;;;;;;;41.55;18.65;;;;;;;15.22;100.00;97529.94;5111803;28;20023;-76
2024/02/27 15:13:49;;;;;;;34.78;17.25;;;;;;;15.10;100.00;97536.31;5111385;28;20122;-77
2024/02/27 15:16:15;;;;;;;36.90;18.65;;;;;;;15.10;100.00;97542.53;5111696;28;20563;-76
2024/02/27 15:18:41;;;;;;;35.33;18.05;;;;;;;15.10;100.00;97547.09;5094240;28;20536;-77
2024/02/27 15:21:07;;;;;;;43.35;17.27;;;;;;;15.01;100.00;97540.59;5111648;28;20106;-78
2024/02/27 15:23:33;;;;;;;38.40;17.95;;;;;;;14.98;100.00;97548.91;5094061;28;20015;-77
2024/02/27 15:25:58;;;;;;;35.22;17.58;;;;;;;14.75;100.00;97543.63;5110070;28;20390;-78
2024/02/27 15:28:24;;;;;;;39.70;18.20;;;;;;;14.76;100.00;97558.81;5094551;28;20095;-77
2024/02/27 15:30:50;;;;;;;37.47;19.10;;;;;;;14.84;100.00;97556.38;5111216;28;20433;-75
2024/02/27 15:33:15;;;;;;;33.08;17.13;;;;;;;14.78;100.00;97557.72;5111733;28;20024;-76
2024/02/27 15:35:41;;;;;;;221.50;130.25;;;;;;;14.76;100.00;97564.22;5096399;28;20490;-78
2024/02/27 15:38:07;;;;;;;34.47;18.15;;;;;;;14.77;100.00;97565.91;5111301;28;20032;-76
2024/02/27 15:40:33;;;;;;;42.03;19.00;;;;;;;14.67;100.00;97565.78;5112108;28;20027;-77
2024/02/27 15:43:00;;;;;;;43.08;21.05;;;;;;;14.54;100.00;97571.28;5093025;28;20038;-76
2024/02/27 15:45:25;;;;;;;40.03;20.55;;;;;;;14.60;100.00;97576.19;5112380;28;20029;-77
2024/02/27 15:47:52;;;;;;;42.83;19.55;;;;;;;14.63;100.00;97583.16;5111757;28;20106;-75
2024/02/27 15:50:18;;;;;;;33.78;17.75;;;;;;;14.57;100.00;97587.19;5110826;28;20053;-75
2024/02/27 15:52:44;;;;;;;34.65;18.20;;;;;;;14.50;100.00;97577.88;5110465;28;20027;-75
2024/02/27 15:55:09;;;;;;;40.90;17.17;;;;;;;14.50;100.00;97587.75;5110648;28;20164;-76
2024/02/27 15:57:35;;;;;;;39.28;19.15;;;;;;;14.40;100.00;97589.44;5110472;28;20379;-76
2024/02/27 16:00:04;;;;;;;42.25;18.75;;;;;;;14.33;100.00;97594.47;5093308;28;20494;-76
2024/02/27 16:02:31;;;;;;;44.08;20.02;;;;;;;14.20;100.00;97596.31;5112300;28;20058;-76
2024/02/27 16:04:58;;;;;;;43.67;20.30;;;;;;;14.15;100.00;97586.88;5112054;28;20050;-77
2024/02/27 16:07:30;;;;;;;42.85;19.58;;;;;;;14.12;100.00;97599.56;5110500;28;20038;-75
2024/02/27 16:09:56;;;;;;;43.10;20.52;;;;;;;14.13;100.00;97597.75;5110591;28;20513;-76
2024/02/27 16:12:22;;;;;;;35.55;18.95;;;;;;;14.00;100.00;97597.81;5093282;28;20047;-76
2024/02/27 16:14:48;;;;;;;44.60;19.77;;;;;;;13.97;100.00;97600.72;5093107;28;20451;-75
2024/02/27 16:17:13;;;;;;;45.97;20.27;;;;;;;13.80;100.00;97616.41;5111685;28;20406;-76
2024/02/27 16:19:39;;;;;;;41.80;20.95;;;;;;;13.75;100.00;97607.84;5093355;28;20098;-76
2024/02/27 16:22:09;;;;;;;58.15;23.23;;;;;;;13.72;100.00;97608.06;5111475;28;20020;-77
2024/02/27 16:24:34;;;;;;;53.00;25.20;;;;;;;13.64;100.00;97611.28;5110549;28;20026;-75
2024/02/27 16:27:00;;;;;;;59.38;28.23;;;;;;;13.66;100.00;97611.19;5093138;28;20020;-75
2024/02/27 16:29:26;;;;;;;66.18;29.17;;;;;;;13.70;100.00;97607.28;5110359;28;20024;-76
2024/02/27 16:31:52;;;;;;;88.70;36.42;;;;;;;13.72;100.00;97608.88;5109790;28;20092;-76
2024/02/27 16:37:03;;;;;;;71.13;32.45;;;;;;;13.78;100.00;97615.66;5109719;28;20046;-77
2024/02/27 16:39:32;;;;;;;66.90;30.00;;;;;;;13.79;100.00;97620.06;5111452;28;20435;-75
2024/02/27 16:41:58;;;;;;;59.30;25.63;;;;;;;13.79;100.00;97620.06;5109792;28;20023;-75
2024/02/27 16:44:24;;;;;;;43.78;23.23;;;;;;;13.82;100.00;97631.44;5110043;28;20024;-76
2024/02/27 16:46:50;;;;;;;51.22;22.77;;;;;;;13.72;100.00;97624.19;5109989;28;20427;-77
2024/02/27 16:49:19;;;;;;;45.70;22.85;;;;;;;13.72;100.00;97622.31;5093060;28;20023;-77
2024/02/27 16:51:44;;;;;;;53.63;24.35;;;;;;;13.66;100.00;97619.25;5112286;28;20031;-76
2024/02/27 16:54:10;;;;;;;48.10;19.77;;;;;;;13.60;100.00;97625.09;5111649;28;20077;-75
2024/02/27 16:56:38;;;;;;;40.38;19.25;;;;;;;13.60;100.00;97625.91;5109649;28;20488;-77
2024/02/27 16:59:04;;;;;;;41.05;20.63;;;;;;;13.63;100.00;97633.75;5092989;28;20089;-76
2024/02/27 17:01:29;;;;;;;44.40;20.15;;;;;;;13.50;100.00;97636.47;5109968;28;20016;-76
2024/02/27 17:03:55;;;;;;;40.08;21.35;;;;;;;13.43;100.00;97627.16;5109711;28;20023;-76
2024/02/27 17:06:21;;;;;;;47.92;22.13;;;;;;;13.46;100.00;97640.38;5103978;28;20027;-76
2024/02/27 17:08:46;;;;;;;47.50;22.40;;;;;;;13.52;100.00;97649.81;5109694;28;20031;-76
2024/02/27 17:11:12;;;;;;;47.60;21.52;;;;;;;13.54;100.00;97653.25;5109547;28;20529;-78
2024/02/27 17:13:37;;;;;;;39.38;19.55;;;;;;;13.50;100.00;97649.06;5109646;28;20040;-77
2024/02/27 17:16:03;;;;;;;44.75;19.77;;;;;;;13.36;100.00;97641.13;5109977;28;20031;-74
2024/02/27 17:18:29;;;;;;;41.17;20.08;;;;;;;13.31;100.00;97652.22;5109914;28;20104;-78
2024/02/27 17:20:55;;;;;;;97.05;50.92;;;;;;;13.26;100.00;97648.97;5110340;28;20055;-75
2024/02/27 17:23:24;;;;;;;137.30;72.75;;;;;;;13.24;100.00;97652.75;5111306;28;20108;-78
2024/02/27 17:25:50;;;;;;;57.35;27.15;;;;;;;13.17;100.00;97660.38;5111261;28;20031;-77
2024/02/27 17:28:17;;;;;;;58.08;30.40;;;;;;;13.09;100.00;97652.00;5107283;28;20028;-75
2024/02/27 17:30:43;;;;;;;42.10;20.10;;;;;;;13.02;100.00;97669.47;5110156;28;20020;-85
2024/02/27 17:33:10;;;;;;;42.10;20.77;;;;;;;12.99;100.00;97662.50;5100279;28;20047;-85
2024/02/27 17:35:36;;;;;;;45.33;21.77;;;;;;;13.02;100.00;97661.41;5099116;28;20055;-84
2024/02/27 17:38:02;;;;;;;45.47;19.65;;;;;;;13.00;100.00;97663.38;5090356;28;20058;-83
2024/02/27 17:40:30;;;;;;;40.63;19.25;;;;;;;12.79;100.00;97659.50;5089877;28;20031;-83
2024/02/27 17:42:55;;;;;;;41.58;18.83;;;;;;;12.78;100.00;97671.19;5090599;28;20107;-87
2024/02/27 17:45:21;;;;;;;41.28;17.45;;;;;;;12.75;100.00;97663.34;5088673;28;20163;-82
2024/02/27 17:47:47;;;;;;;46.75;20.50;;;;;;;12.77;100.00;97661.41;5090093;28;20058;-83
2024/02/27 17:50:13;;;;;;;42.63;19.83;;;;;;;12.73;100.00;97670.66;5109865;28;20045;-83
2024/02/27 17:52:39;;;;;;;46.47;21.85;;;;;;;12.79;100.00;97676.47;5094677;28;20145;-84
2024/02/27 17:55:06;;;;;;;42.22;20.23;;;;;;;12.83;100.00;97671.72;5096280;28;20096;-85
2024/02/27 17:57:31;;;;;;;47.20;20.73;;;;;;;12.83;100.00;97672.56;5094714;28;20023;-84
2024/02/27 17:59:58;;;;;;;47.30;21.08;;;;;;;12.83;100.00;97664.53;5096132;28;20060;-82
2024/02/27 18:02:27;;;;;;;37.08;18.52;;;;;;;12.81;100.00;97662.91;5113454;28;20023;-83
2024/02/27 18:04:52;;;;;;;40.80;18.98;;;;;;;12.79;100.00;97675.59;5098297;28;20519;-80
2024/02/27 18:07:18;;;;;;;71.43;36.10;;;;;;;12.74;100.00;97681.25;5115578;28;20114;-83
2024/02/27 18:09:44;;;;;;;83.15;40.85;;;;;;;12.75;100.00;97687.50;5096881;28;20032;-76
2024/02/27 18:12:09;;;;;;;105.30;49.88;;;;;;;12.78;100.00;97685.47;5093032;28;20125;-80
2024/02/27 18:14:35;;;;;;;44.63;24.02;;;;;;;12.81;100.00;97692.44;5093303;28;20051;-79
2024/02/27 18:17:01;;;;;;;42.00;20.27;;;;;;;12.75;100.00;97685.69;5111293;28;20044;-80
2024/02/27 18:19:27;;;;;;;47.58;19.95;;;;;;;12.71;100.00;97677.94;5092703;28;20032;-78
2024/02/27 18:21:52;;;;;;;38.65;18.45;;;;;;;12.70;100.00;97682.47;5110397;28;20035;-80
2024/02/27 18:24:18;;;;;;;107.88;57.00;;;;;;;12.67;100.00;97697.91;5109705;28;20028;-81
2024/02/27 18:26:44;;;;;;;42.80;21.50;;;;;;;12.57;100.00;97696.81;5109861;28;20086;-81
2024/02/27 18:29:09;;;;;;;39.28;17.95;;;;;;;12.60;100.00;97697.47;5109708;28;20039;-80
2024/02/27 18:31:35;;;;;;;45.75;19.70;;;;;;;12.55;100.00;97694.22;5109750;28;20352;-79
2024/02/27 18:34:01;;;;;;;40.35;19.23;;;;;;;12.52;100.00;97693.59;5109295;28;20062;-79
2024/02/27 18:36:30;;;;;;;41.75;19.10;;;;;;;12.39;100.00;97699.78;5092288;28;20092;-79
2024/02/27 18:38:55;;;;;;;41.33;20.27;;;;;;;12.23;100.00;97685.66;5093020;28;20374;-79
2024/02/27 18:41:21;;;;;;;39.25;18.88;;;;;;;12.32;100.00;97702.94;5109413;28;20034;-80
2024/02/27 18:43:48;;;;;;;41.85;20.63;;;;;;;12.37;100.00;97701.69;5110826;28;20028;-78
2024/02/27 18:46:14;;;;;;;40.70;19.90;;;;;;;12.31;100.00;97702.09;5109391;28;20502;-80
2024/02/27 18:48:40;;;;;;;46.00;20.08;;;;;;;12.34;100.00;97707.25;5109203;28;20028;-76
2024/02/27 18:51:08;;;;;;;36.40;18.27;;;;;;;12.30;100.00;97699.53;5110788;28;20032;-79
2024/02/27 18:53:35;;;;;;;42.88;18.88;;;;;;;12.34;100.00;97701.00;5109159;28;20455;-79
2024/02/27 18:56:19;;;;;;;41.75;19.63;;;;;;;12.30;100.00;97699.53;5053237;28;20055;-76
2024/02/27 18:58:45;;;;;;;43.67;19.85;;;;;;;12.18;100.00;97690.44;5067463;28;20040;-81
2024/02/27 19:01:10;;;;;;;41.40;21.15;;;;;;;12.21;100.00;97694.78;5067245;28;20111;-81
2024/02/27 19:03:36;;;;;;;43.40;21.85;;;;;;;12.23;100.00;97698.19;5050747;28;20024;-81
2024/02/27 19:06:05;;;;;;;42.92;20.45;;;;;;;12.13;100.00;97692.56;5050940;28;20123;-79
2024/02/27 19:08:30;;;;;;;49.97;21.98;;;;;;;12.13;100.00;97683.66;5051148;28;20497;-79
2024/02/27 19:10:57;;;;;;;48.72;22.85;;;;;;;12.12;100.00;97696.22;5068160;28;20068;-82
2024/02/27 19:13:25;;;;;;;43.97;21.85;;;;;;;12.07;100.00;97684.06;5053620;28;20423;-81
2024/02/27 19:15:51;;;;;;;50.15;21.98;;;;;;;12.01;100.00;97695.19;5053307;28;20501;-81
2024/02/27 19:18:17;;;;;;;51.35;23.15;;;;;;;11.90;100.00;97688.72;5051798;28;20020;-81
2024/02/27 19:20:44;;;;;;;43.38;21.63;;;;;;;11.82;100.00;97695.53;5070124;28;20071;-81
2024/02/27 19:23:10;;;;;;;54.08;24.67;;;;;;;11.79;100.00;97709.13;5038006;28;20031;-79
2024/02/27 19:25:36;;;;;;;49.97;23.30;;;;;;;11.66;100.00;97711.69;5036472;28;20113;-80
2024/02/27 19:28:05;;;;;;;178.57;109.25;;;;;;;11.63;100.00;97711.06;5082340;28;20051;-81
2024/02/27 19:30:34;;;;;;;50.95;24.38;;;;;;;11.60;100.00;97716.56;5111249;28;20023;-79
2024/02/27 19:32:59;;;;;;;46.92;22.85;;;;;;;11.48;100.00;97712.84;5111082;28;20020;-82
2024/02/27 19:35:27;;;;;;;45.00;22.45;;;;;;;11.51;100.00;97718.03;5111154;28;20452;-80
2024/02/27 19:37:54;;;;;;;53.03;20.75;;;;;;;11.49;100.00;97725.31;5110834;28;20046;-81
2024/02/27 19:40:19;;;;;;;42.45;21.50;;;;;;;11.48;100.00;97725.38;5112322;28;20111;-80
2024/02/27 19:42:46;;;;;;;44.90;22.95;;;;;;;11.46;100.00;97730.00;5111931;28;20114;-79
2024/02/27 19:45:12;;;;;;;47.13;22.27;;;;;;;11.30;100.00;97728.25;5112572;28;20046;-79
2024/02/27 19:47:37;;;;;;;45.85;22.52;;;;;;;11.14;100.00;97727.47;5111063;28;20035;-79
2024/02/27 19:50:06;;;;;;;48.95;21.45;;;;;;;11.16;100.00;97724.72;5111822;28;20517;-79
2024/02/27 19:52:36;;;;;;;44.22;21.40;;;;;;;11.11;100.00;97716.09;5112239;28;20525;-80
2024/02/27 19:55:01;;;;;;;44.80;20.35;;;;;;;10.89;100.00;97721.91;5112124;28;20106;-80
2024/02/27 19:57:28;;;;;;;51.30;21.52;;;;;;;10.96;100.00;97731.28;5093730;28;20057;-79
2024/02/27 19:59:53;;;;;;;45.95;21.75;;;;;;;10.85;100.00;97723.91;5110518;28;20084;-80
2024/02/27 20:02:19;;;;;;;50.63;23.17;;;;;;;10.80;100.00;97738.50;5110783;28;20024;-80
2024/02/27 20:04:46;;;;;;;44.83;21.23;;;;;;;10.79;100.00;97734.13;5111727;28;20111;-79
2024/02/27 20:07:11;;;;;;;63.78;32.83;;;;;;;10.63;100.00;97715.44;5093384;28;20032;-79
2024/02/27 20:09:37;;;;;;;70.50;28.73;;;;;;;10.56;100.00;97731.94;5111983;28;20016;-78
2024/02/27 20:12:03;;;;;;;61.33;26.20;;;;;;;10.52;100.00;97728.56;5110920;28;20368;-79
2024/02/27 20:14:28;;;;;;;64.05;25.55;;;;;;;10.45;100.00;97724.56;5093625;28;20027;-79
2024/02/27 20:16:54;;;;;;;69.65;28.27;;;;;;;10.45;100.00;97737.94;5110458;28;20031;-79
2024/02/27 20:19:19;;;;;;;60.03;27.45;;;;;;;10.39;100.00;97734.75;5093597;28;20479;-80
2024/02/27 20:21:45;;;;;;;71.78;30.35;;;;;;;10.32;100.00;97742.25;5110685;28;20042;-80
2024/02/27 20:24:10;;;;;;;79.68;31.38;;;;;;;10.19;100.00;97742.09;5111427;28;20099;-79
2024/02/27 20:26:42;;;;;;;68.72;31.20;;;;;;;10.25;100.00;97741.75;5110349;28;20031;-78
2024/02/27 20:29:08;;;;;;;69.85;30.08;;;;;;;10.09;100.00;97730.16;5110011;28;20027;-80
2024/02/27 20:31:34;;;;;;;72.85;32.33;;;;;;;10.07;100.00;97740.09;5110570;28;20050;-79
2024/02/27 20:34:02;;;;;;;58.88;26.00;;;;;;;10.03;100.00;97740.38;5092939;28;20031;-79
2024/02/27 20:36:28;;;;;;;68.13;28.33;;;;;;;9.95;100.00;97743.47;5110523;28;20035;-78
2024/02/27 20:38:54;;;;;;;62.45;28.00;;;;;;;9.88;100.00;97743.88;5110365;28;20486;-78
2024/02/27 20:41:20;;;;;;;68.57;29.33;;;;;;;9.86;100.00;97743.97;5110241;28;20496;-79
2024/02/27 20:43:46;;;;;;;68.43;29.98;;;;;;;9.87;100.00;97752.88;5110375;28;20109;-79
2024/02/27 20:46:12;;;;;;;58.92;27.90;;;;;;;9.78;100.00;97741.72;5109952;28;20020;-79
2024/02/27 20:48:37;;;;;;;63.45;29.58;;;;;;;9.79;100.00;97742.59;5110089;28;20018;-79
2024/02/27 20:51:03;;;;;;;75.43;32.20;;;;;;;9.68;100.00;97740.53;5109784;28;20111;-79
2024/02/27 20:53:29;;;;;;;78.10;34.78;;;;;;;9.65;100.00;97750.50;5109891;28;20022;-80
2024/02/27 20:55:54;;;;;;;71.85;32.10;;;;;;;9.52;100.00;97746.78;5109736;28;20054;-78
2024/02/27 20:58:20;;;;;;;63.88;28.63;;;;;;;9.51;100.00;97753.94;5111388;28;20027;-79
2024/02/27 21:00:45;;;;;;;55.85;23.00;;;;;;;9.37;100.00;97751.16;5110065;28;20020;-80
2024/02/27 21:03:11;;;;;;;59.30;24.60;;;;;;;9.16;100.00;97737.16;5109787;28;20024;-80
2024/02/27 21:05:37;;;;;;;48.03;22.02;;;;;;;9.22;100.00;97739.50;5109935;28;20122;-79
2024/02/27 21:08:03;;;;;;;52.97;20.83;;;;;;;9.08;100.00;97739.34;5109608;28;20036;-78
2024/02/27 21:10:28;;;;;;;62.70;25.75;;;;;;;9.03;100.00;97736.06;5092577;28;20126;-79
2024/02/27 21:12:54;;;;;;;67.05;28.65;;;;;;;9.01;100.00;97732.59;5109247;28;20148;-79
2024/02/27 21:15:20;;;;;;;69.97;29.00;;;;;;;9.00;100.00;97738.91;5109634;28;20037;-78
2024/02/27 21:17:45;;;;;;;68.95;27.23;;;;;;;9.05;100.00;97747.53;5092885;28;20420;-79
2024/02/27 21:20:11;;;;;;;74.00;29.13;;;;;;;8.99;100.00;97734.50;5110957;28;20459;-79
2024/02/27 21:22:37;;;;;;;72.28;30.80;;;;;;;9.00;100.00;97738.91;5109923;28;20019;-79
2024/02/27 21:25:03;;;;;;;65.22;29.25;;;;;;;8.98;100.00;97731.94;5112139;28;20101;-78
2024/02/27 21:27:30;;;;;;;68.93;29.33;;;;;;;8.98;100.00;97743.44;5096753;28;20024;-78
2024/02/27 21:29:56;;;;;;;61.00;23.60;;;;;;;8.83;100.00;97733.56;5096950;28;20028;-80
2024/02/27 21:32:22;;;;;;;44.40;21.40;;;;;;;8.82;100.00;97739.00;5113666;28;20031;-80
2024/02/27 21:34:48;;;;;;;46.83;22.77;;;;;;;8.72;100.00;97725.28;5114003;28;20484;-79
2024/02/27 21:37:13;;;;;;;49.83;21.73;;;;;;;8.68;100.00;97735.25;5113539;28;20111;-79
2024/02/27 21:39:39;;;;;;;48.45;20.95;;;;;;;8.72;100.00;97738.63;5113637;28;20023;-78
2024/02/27 21:42:05;;;;;;;41.40;19.80;;;;;;;8.65;100.00;97743.41;5096252;28;20093;-77
2024/02/27 21:44:32;;;;;;;51.28;19.88;;;;;;;8.60;100.00;97747.25;5113631;28;20031;-79
2024/02/27 21:46:57;;;;;;;41.03;19.52;;;;;;;8.53;100.00;97745.81;5096657;28;20114;-79
2024/02/27 21:49:23;;;;;;;42.92;20.75;;;;;;;8.48;100.00;97740.75;5114592;28;20114;-79
2024/02/27 21:51:49;;;;;;;53.92;23.92;;;;;;;8.53;100.00;97749.34;5113668;28;20026;-79
2024/02/27 21:54:14;;;;;;;56.83;24.52;;;;;;;8.52;100.00;97750.28;5112963;28;20493;-79
2024/02/27 21:56:40;;;;;;;51.08;23.55;;;;;;;8.31;100.00;97750.50;5096407;28;20030;-78
2024/02/27 21:59:06;;;;;;;52.75;24.90;;;;;;;8.33;100.00;97756.63;5114472;28;20028;-79
2024/02/27 22:01:40;;;;;;;62.70;27.40;;;;;;;8.37;100.00;97760.84;5095930;28;20023;-81
2024/02/27 22:04:06;;;;;;;54.45;24.75;;;;;;;8.38;100.00;97758.13;5114432;28;20142;-79
2024/02/27 22:06:34;;;;;;;62.20;25.13;;;;;;;8.37;100.00;97760.84;5113001;28;20079;-80
2024/02/27 22:09:01;;;;;;;60.45;27.48;;;;;;;8.16;100.00;97744.97;5113319;28;20471;-80
2024/02/27 22:11:27;;;;;;;56.85;26.70;;;;;;;8.25;100.00;97751.63;5112869;28;20441;-80
2024/02/27 22:13:53;;;;;;;55.38;24.52;;;;;;;8.17;100.00;97753.81;5114315;28;20128;-78
2024/02/27 22:16:18;;;;;;;58.58;27.02;;;;;;;8.05;100.00;97752.63;5112671;28;20031;-80
2024/02/27 22:18:44;;;;;;;55.30;25.08;;;;;;;7.95;100.00;97763.78;5112900;28;20019;-78
2024/02/27 22:21:17;;;;;;;51.55;22.55;;;;;;;7.88;100.00;97757.03;5113007;28;20080;-79
2024/02/27 22:23:42;;;;;;;52.58;23.70;;;;;;;7.85;100.00;97765.16;5114234;28;20020;-79
2024/02/27 22:26:41;;;;;;;51.28;24.52;;;;;;;7.86;100.00;97767.75;5112873;28;20031;-82
2024/02/27 22:29:06;;;;;;;60.10;22.38;;;;;;;7.82;100.00;97774.16;5034491;28;20123;-78
2024/02/27 22:31:32;;;;;;;48.60;22.40;;;;;;;7.75;100.00;97772.75;5042077;28;20116;-79
2024/02/27 22:33:57;;;;;;;49.13;22.40;;;;;;;7.75;100.00;97763.88;5112760;28;20036;-79
2024/02/27 22:36:24;;;;;;;48.28;23.08;;;;;;;7.78;100.00;97777.91;5113306;28;20473;-78
2024/02/27 22:38:50;;;;;;;52.63;23.88;;;;;;;7.63;100.00;97765.31;5096011;28;20024;-79
2024/02/27 22:41:16;;;;;;;52.15;24.48;;;;;;;7.69;100.00;97780.16;5112693;28;20055;-80
2024/02/27 22:43:41;;;;;;;56.22;22.95;;;;;;;7.71;100.00;97778.28;5095501;28;20131;-79
2024/02/27 22:46:07;;;;;;;54.80;23.73;;;;;;;7.66;100.00;97773.16;5113582;28;20028;-79
2024/02/27 22:48:33;;;;;;;55.00;22.83;;;;;;;7.60;100.00;97779.63;5112089;28;20098;-79
2024/02/27 22:50:58;;;;;;;49.95;23.27;;;;;;;7.60;100.00;97789.41;5113519;28;20418;-79
2024/02/27 22:53:24;;;;;;;57.30;23.33;;;;;;;7.42;100.00;97779.59;5113229;28;20490;-78
2024/02/27 22:55:49;;;;;;;54.22;23.55;;;;;;;7.48;100.00;97804.16;5112293;28;20028;-79
2024/02/27 22:58:16;;;;;;;50.03;23.98;;;;;;;7.50;100.00;97790.78;5112154;28;20031;-79
2024/02/27 23:00:42;;;;;;;51.15;21.63;;;;;;;7.45;100.00;97801.63;5095045;28;20033;-79
2024/02/27 23:03:08;;;;;;;47.72;20.88;;;;;;;7.37;100.00;97792.25;5112174;28;20070;-79
2024/02/27 23:05:35;;;;;;;49.28;21.25;;;;;;;7.43;100.00;97798.19;5095332;28;20047;-79
2024/02/27 23:08:00;;;;;;;54.67;21.58;;;;;;;7.37;100.00;97792.25;5113540;28;20019;-80
2024/02/27 23:10:26;;;;;;;44.17;20.30;;;;;;;7.23;100.00;97782.22;5112052;28;20414;-77
2024/02/27 23:13:05;;;;;;;46.88;19.45;;;;;;;7.30;100.00;97796.13;5094910;28;20043;-79
2024/02/27 23:15:57;;;;;;;39.53;19.42;;;;;;;7.02;100.00;97776.09;5094421;28;20112;-79
2024/02/27 23:22:46;;;;;;;39.38;18.10;;;;;;;6.76;100.00;97763.06;4995902;28;20295;-80
2024/02/27 23:35:44;;;;;;;53.08;20.55;;;;;;;6.82;100.00;97808.00;5008389;28;20213;-79
2024/02/27 23:38:10;;;;;;;149.35;34.55;;;;;;;6.85;100.00;97799.91;5033453;28;20111;-78
2024/02/27 23:40:36;;;;;;;43.60;20.75;;;;;;;6.85;100.00;97804.34;5030527;28;20064;-78
2024/02/27 23:43:02;;;;;;;47.60;19.98;;;;;;;6.80;100.00;97793.06;5061669;28;20039;-79
2024/02/27 23:45:48;;;;;;;38.22;17.67;;;;;;;6.79;100.00;97808.13;5090110;28;20024;-80
2024/02/27 23:58:32;;;;;;;40.10;17.45;;;;;;;6.38;100.00;97801.03;5008674;28;20038;-81
